createdAt,value
2023-02-17T00:02:11.707Z,7.18
2023-02-17T00:04:50.756Z,7.43
2023-02-17T00:07:26.069Z,9.45
2023-02-17T00:10:01.094Z,7.07
2023-02-17T00:12:36.323Z,7.63
2023-02-17T00:15:13.544Z,8.48
2023-02-17T00:17:50.824Z,6.30
2023-02-17T00:20:29.681Z,9.02
2023-02-17T00:23:04.940Z,6.55
2023-02-17T00:25:39.677Z,5.93
2023-02-17T00:28:15.282Z,8.15
2023-02-17T00:30:50.192Z,9.27
2023-02-17T00:33:29.523Z,8.98
2023-02-17T00:36:10.601Z,7.40
2023-02-17T00:38:48.273Z,6.10
2023-02-17T00:41:23.247Z,5.80
2023-02-17T00:44:00.826Z,6.63
2023-02-17T00:46:35.172Z,6.93
2023-02-17T00:49:10.012Z,5.72
2023-02-17T00:51:50.278Z,7.65
2023-02-17T00:54:25.832Z,6.47
2023-02-17T00:57:00.189Z,6.95
2023-02-17T00:59:36.141Z,5.72
2023-02-17T01:02:13.847Z,7.55
2023-02-17T01:04:55.318Z,7.25
2023-02-17T01:07:34.156Z,6.68
2023-02-17T01:10:14.331Z,5.18
2023-02-17T01:12:49.463Z,8.35
2023-02-17T01:15:28.264Z,7.70
2023-02-17T01:18:05.191Z,5.93
2023-02-17T01:20:40.417Z,4.68
2023-02-17T01:23:17.394Z,7.90
2023-02-17T01:25:53.310Z,6.60
2023-02-17T01:28:28.960Z,10.50
2023-02-17T01:31:04.306Z,5.95
2023-02-17T01:33:39.230Z,5.25
2023-02-17T01:36:25.310Z,3.90
2023-02-17T01:39:01.571Z,7.85
2023-02-17T01:41:38.361Z,4.90
2023-02-17T01:44:16.078Z,5.55
2023-02-17T01:46:53.081Z,5.47
2023-02-17T01:49:30.307Z,6.45
2023-02-17T01:52:11.410Z,8.18
2023-02-17T01:54:52.176Z,5.35
2023-02-17T01:57:28.704Z,5.40
2023-02-17T02:00:03.485Z,6.40
2023-02-17T02:02:50.795Z,7.18
2023-02-17T02:05:27.240Z,4.25
2023-02-17T02:08:03.318Z,5.60
2023-02-17T02:10:50.234Z,6.00
2023-02-17T02:13:25.960Z,4.88
2023-02-17T02:16:07.823Z,7.70
2023-02-17T02:18:49.741Z,5.43
2023-02-17T02:21:40.773Z,4.75
2023-02-17T02:24:21.175Z,4.95
2023-02-17T02:27:08.088Z,7.63
2023-02-17T02:29:58.233Z,4.57
2023-02-17T02:32:41.357Z,6.30
2023-02-17T02:35:19.801Z,5.43
2023-02-17T02:37:57.814Z,6.95
2023-02-17T02:40:40.699Z,6.13
2023-02-17T02:43:21.052Z,5.90
2023-02-17T02:45:56.050Z,5.05
2023-02-17T02:48:33.813Z,7.25
2023-02-17T02:51:29.098Z,5.80
2023-02-17T02:54:29.583Z,5.70
2023-02-17T02:57:09.616Z,5.43
2023-02-17T02:59:49.573Z,6.15
2023-02-17T03:02:31.408Z,7.65
2023-02-17T03:05:12.754Z,5.47
2023-02-17T03:07:51.532Z,7.40
2023-02-17T03:10:27.011Z,6.78
2023-02-17T03:13:03.213Z,8.55
2023-02-17T03:15:40.724Z,7.75
2023-02-17T03:18:20.615Z,6.13
2023-02-17T03:20:59.908Z,5.97
2023-02-17T03:23:37.148Z,7.07
2023-02-17T03:26:11.547Z,5.15
2023-02-17T03:28:47.455Z,7.63
2023-02-17T03:31:22.499Z,8.13
2023-02-17T03:33:57.923Z,8.98
2023-02-17T03:36:34.751Z,7.72
2023-02-17T03:39:15.078Z,7.13
2023-02-17T03:41:55.536Z,6.65
2023-02-17T03:44:30.901Z,10.55
2023-02-17T03:47:07.383Z,5.57
2023-02-17T03:49:43.800Z,7.95
2023-02-17T03:52:23.399Z,7.80
2023-02-17T03:54:58.519Z,6.25
2023-02-17T03:57:36.436Z,6.90
2023-02-17T04:00:15.200Z,6.93
2023-02-17T04:02:50.159Z,7.13
2023-02-17T04:05:25.847Z,7.85
2023-02-17T04:08:02.071Z,5.57
2023-02-17T04:10:37.784Z,5.20
2023-02-17T04:13:13.970Z,7.40
2023-02-17T04:15:52.043Z,7.40
2023-02-17T04:18:26.886Z,8.52
2023-02-17T04:21:01.853Z,6.55
2023-02-17T04:23:40.008Z,6.72
2023-02-17T04:26:14.604Z,7.55
2023-02-17T04:28:49.765Z,7.90
2023-02-17T04:31:30.612Z,7.38
2023-02-17T04:34:05.957Z,7.55
2023-02-17T04:36:44.235Z,6.85
2023-02-17T04:39:20.620Z,5.30
2023-02-17T04:41:55.867Z,6.18
2023-02-17T04:44:33.324Z,6.38
2023-02-17T04:47:09.922Z,9.05
2023-02-17T04:49:45.465Z,7.93
2023-02-17T04:52:22.404Z,6.43
2023-02-17T04:54:59.015Z,7.43
2023-02-17T04:57:33.632Z,7.60
2023-02-17T05:00:14.875Z,9.60
2023-02-17T05:02:51.198Z,10.57
2023-02-17T05:05:28.765Z,6.72
2023-02-17T05:08:05.473Z,7.75
2023-02-17T05:10:47.918Z,8.63
2023-02-17T05:13:23.049Z,8.13
2023-02-17T05:16:02.141Z,7.80
2023-02-17T05:18:38.927Z,8.32
2023-02-17T05:21:14.443Z,8.50
2023-02-17T05:23:49.282Z,11.38
2023-02-17T05:26:26.651Z,10.80
2023-02-17T05:29:01.722Z,6.28
2023-02-17T05:31:52.564Z,8.60
2023-02-17T05:34:31.001Z,8.93
2023-02-17T05:37:11.287Z,11.80
2023-02-17T05:39:48.030Z,7.53
2023-02-17T05:42:24.776Z,9.15
2023-02-17T05:44:59.660Z,8.90
2023-02-17T05:47:40.065Z,7.05
2023-02-17T05:50:17.253Z,10.60
2023-02-17T05:52:52.771Z,9.30
2023-02-17T05:55:30.525Z,10.93
2023-02-17T05:58:13.043Z,7.57
2023-02-17T06:00:49.968Z,8.07
2023-02-17T06:03:27.510Z,7.82
2023-02-17T06:06:08.920Z,10.20
2023-02-17T06:08:45.607Z,6.90
2023-02-17T06:11:20.704Z,6.07
2023-02-17T06:14:00.283Z,10.85
2023-02-17T06:16:36.187Z,6.03
2023-02-17T06:19:13.784Z,8.90
2023-02-17T06:21:50.048Z,6.90
2023-02-17T06:24:25.216Z,10.27
2023-02-17T06:27:00.910Z,11.82
2023-02-17T06:29:39.224Z,8.70
2023-02-17T06:32:14.954Z,13.57
2023-02-17T06:34:54.320Z,9.80
2023-02-17T06:37:31.593Z,8.23
2023-02-17T06:40:08.764Z,11.18
2023-02-17T06:42:44.683Z,9.32
2023-02-17T06:45:22.370Z,9.57
2023-02-17T06:47:59.011Z,8.57
2023-02-17T06:50:39.878Z,8.93
2023-02-17T06:53:15.934Z,10.13
2023-02-17T06:55:56.352Z,7.80
2023-02-17T06:58:32.014Z,12.00
2023-02-17T07:01:11.580Z,10.82
2023-02-17T07:03:48.230Z,9.07
2023-02-17T07:06:26.975Z,9.82
2023-02-17T07:09:14.216Z,12.10
2023-02-17T07:11:59.208Z,12.60
2023-02-17T07:14:36.373Z,10.93
2023-02-17T07:17:17.138Z,11.15
2023-02-17T07:19:53.024Z,9.15
2023-02-17T07:22:29.827Z,11.38
2023-02-17T07:25:05.764Z,12.95
2023-02-17T07:27:42.760Z,9.70
2023-02-17T07:30:20.494Z,16.45
2023-02-17T07:32:58.892Z,9.32
2023-02-17T07:35:40.015Z,13.00
2023-02-17T07:38:16.334Z,14.90
2023-02-17T07:40:53.434Z,11.55
2023-02-17T07:43:29.110Z,10.52
2023-02-17T07:46:08.334Z,11.50
2023-02-17T07:48:49.601Z,14.00
2023-02-17T07:51:26.232Z,11.77
2023-02-17T07:54:06.806Z,12.32
2023-02-17T07:56:45.369Z,13.55
2023-02-17T07:59:21.223Z,14.32
2023-02-17T08:01:56.693Z,16.25
2023-02-17T08:04:35.265Z,22.08
2023-02-17T08:07:10.740Z,17.55
2023-02-17T08:10:03.621Z,18.63
2023-02-17T08:12:57.688Z,13.63
2023-02-17T08:15:33.817Z,14.00
2023-02-17T08:18:10.832Z,12.25
2023-02-17T08:20:48.688Z,10.10
2023-02-17T08:23:25.802Z,14.38
2023-02-17T08:26:13.443Z,12.98
2023-02-17T08:28:51.756Z,13.48
2023-02-17T08:31:32.664Z,13.43
2023-02-17T08:34:09.190Z,9.40
2023-02-17T08:36:47.302Z,12.18
2023-02-17T08:39:23.186Z,14.38
2023-02-17T08:42:00.948Z,12.05
2023-02-17T08:44:42.776Z,12.65
2023-02-17T08:47:19.263Z,14.90
2023-02-17T08:49:57.223Z,9.02
2023-02-17T08:52:37.208Z,14.18
2023-02-17T08:55:15.007Z,13.98
2023-02-17T08:57:52.317Z,15.10
2023-02-17T09:00:30.687Z,14.55
2023-02-17T09:03:09.215Z,17.98
2023-02-17T09:05:44.374Z,14.13
2023-02-17T09:08:21.169Z,12.75
2023-02-17T09:10:56.114Z,15.35
2023-02-17T09:13:30.986Z,15.65
2023-02-17T09:16:07.236Z,12.15
2023-02-17T09:18:43.713Z,13.40
2023-02-17T09:21:18.829Z,15.70
2023-02-17T09:23:55.856Z,14.27
2023-02-17T09:26:31.082Z,15.82
2023-02-17T09:29:06.105Z,16.20
2023-02-17T09:31:42.564Z,15.60
2023-02-17T09:34:21.601Z,14.02
2023-02-17T09:36:56.882Z,10.73
2023-02-17T09:39:34.289Z,12.43
2023-02-17T09:42:09.408Z,12.02
2023-02-17T09:44:49.470Z,13.75
2023-02-17T09:47:26.619Z,13.82
2023-02-17T09:50:05.263Z,14.90
2023-02-17T09:52:42.066Z,19.50
2023-02-17T09:55:20.448Z,12.70
2023-02-17T09:57:58.656Z,15.77
2023-02-17T10:00:39.171Z,16.63
2023-02-17T10:03:18.352Z,14.40
2023-02-17T10:05:54.652Z,17.23
2023-02-17T10:08:34.746Z,13.75
2023-02-17T10:11:16.409Z,12.95
2023-02-17T10:13:54.666Z,13.75
2023-02-17T10:16:33.995Z,15.80
2023-02-17T10:19:13.564Z,15.32
2023-02-17T10:21:49.887Z,15.63
2023-02-17T10:24:25.136Z,11.63
2023-02-17T10:27:10.293Z,11.00
2023-02-17T10:29:54.291Z,13.98
2023-02-17T10:32:32.912Z,15.00
2023-02-17T10:35:17.220Z,13.52
2023-02-17T10:37:52.828Z,15.63
2023-02-17T10:40:33.476Z,13.55
2023-02-17T10:43:14.337Z,16.00
2023-02-17T10:45:52.900Z,17.27
2023-02-17T10:48:33.029Z,17.27
2023-02-17T10:51:09.434Z,12.18
2023-02-17T10:53:46.065Z,13.05
2023-02-17T10:56:23.802Z,15.25
2023-02-17T10:59:03.134Z,15.77
2023-02-17T11:01:38.519Z,8.70
2023-02-17T11:04:17.225Z,14.93
2023-02-17T11:06:58.744Z,13.32
2023-02-17T11:09:35.675Z,13.63
2023-02-17T11:12:16.389Z,14.65
2023-02-17T11:14:57.070Z,12.10
2023-02-17T11:17:41.040Z,20.30
2023-02-17T11:20:34.080Z,12.07
2023-02-17T11:23:13.039Z,14.32
2023-02-17T11:25:49.619Z,16.35
2023-02-17T11:28:27.689Z,14.25
2023-02-17T11:31:06.956Z,16.40
2023-02-17T11:33:46.503Z,13.85
2023-02-17T11:36:31.486Z,14.30
2023-02-17T11:39:18.867Z,16.67
2023-02-17T11:41:54.495Z,12.50
2023-02-17T11:44:32.561Z,16.02
2023-02-17T11:47:18.938Z,17.05
2023-02-17T11:50:00.816Z,13.98
2023-02-17T11:52:51.539Z,15.55
2023-02-17T11:55:31.391Z,14.90
2023-02-17T11:58:16.960Z,16.10
2023-02-17T12:00:56.505Z,15.80
2023-02-17T12:03:47.721Z,12.98
2023-02-17T12:06:26.794Z,16.73
2023-02-17T12:09:10.583Z,14.77
2023-02-17T12:11:48.527Z,20.27
2023-02-17T12:14:30.361Z,11.32
2023-02-17T12:17:09.719Z,12.45
2023-02-17T12:19:51.915Z,17.00
2023-02-17T12:22:30.059Z,16.83
2023-02-17T12:25:25.602Z,15.75
2023-02-17T12:28:07.995Z,17.00
2023-02-17T12:30:51.009Z,14.80
2023-02-17T12:33:47.308Z,15.77
2023-02-17T12:36:24.680Z,19.77
2023-02-17T12:39:00.394Z,14.45
2023-02-17T12:41:41.997Z,17.70
2023-02-17T12:44:18.423Z,17.65
2023-02-17T12:46:58.586Z,13.40
2023-02-17T12:49:39.752Z,14.38
2023-02-17T12:52:18.151Z,18.83
2023-02-17T12:54:56.610Z,16.83
2023-02-17T12:57:35.147Z,13.20
2023-02-17T13:00:18.575Z,21.85
2023-02-17T13:02:53.509Z,17.23
2023-02-17T13:05:30.824Z,15.13
2023-02-17T13:08:10.560Z,15.30
2023-02-17T13:10:46.928Z,11.63
2023-02-17T13:13:32.560Z,12.88
2023-02-17T13:16:08.944Z,15.30
2023-02-17T13:18:45.624Z,15.75
2023-02-17T13:21:33.004Z,20.48
2023-02-17T13:24:14.075Z,15.77
2023-02-17T13:26:50.007Z,12.48
2023-02-17T13:29:38.872Z,14.75
2023-02-17T13:32:17.118Z,18.63
2023-02-17T13:35:07.977Z,16.65
2023-02-17T13:37:45.457Z,13.50
2023-02-17T13:43:26.079Z,18.17
2023-02-17T13:46:04.496Z,14.82
2023-02-17T13:48:40.828Z,22.65
2023-02-17T13:51:29.681Z,15.98
2023-02-17T13:54:10.239Z,15.23
2023-02-17T13:56:45.279Z,14.57
2023-02-17T13:59:22.710Z,18.55
2023-02-17T14:01:58.476Z,11.75
2023-02-17T14:04:34.829Z,17.55
2023-02-17T14:07:10.692Z,17.08
2023-02-17T14:09:46.894Z,14.25
2023-02-17T14:12:26.202Z,15.63
2023-02-17T14:15:03.270Z,16.80
2023-02-17T14:17:39.116Z,16.10
2023-02-17T14:20:28.614Z,19.58
2023-02-17T14:23:08.376Z,19.55
2023-02-17T14:25:46.912Z,19.23
2023-02-17T14:28:26.814Z,18.00
2023-02-17T14:31:13.342Z,14.05
2023-02-17T14:33:57.124Z,19.85
2023-02-17T14:36:33.256Z,14.32
2023-02-17T14:39:09.658Z,21.02
2023-02-17T14:41:45.133Z,16.65
2023-02-17T14:44:20.040Z,19.98
2023-02-17T14:46:57.086Z,13.80
2023-02-17T14:49:33.099Z,19.92
2023-02-17T14:52:21.243Z,17.45
2023-02-17T14:54:56.277Z,16.08
2023-02-17T14:57:32.176Z,16.33
2023-02-17T15:00:07.973Z,13.10
2023-02-17T15:02:45.650Z,18.55
2023-02-17T15:05:20.859Z,12.73
2023-02-17T15:07:56.077Z,18.75
2023-02-17T15:10:32.408Z,15.23
2023-02-17T15:13:07.905Z,11.15
2023-02-17T15:15:46.230Z,13.48
2023-02-17T15:18:23.735Z,13.90
2023-02-17T15:20:59.466Z,15.75
2023-02-17T15:23:37.227Z,18.25
2023-02-17T15:26:14.823Z,12.13
2023-02-17T15:28:49.783Z,14.90
2023-02-17T15:31:27.182Z,17.52
2023-02-17T15:34:05.861Z,12.95
2023-02-17T15:36:41.198Z,13.25
2023-02-17T15:39:16.734Z,12.23
2023-02-17T15:41:52.251Z,11.38
2023-02-17T15:44:28.959Z,14.93
2023-02-17T15:47:05.100Z,13.30
2023-02-17T15:49:41.851Z,19.65
2023-02-17T15:52:17.772Z,12.15
2023-02-17T15:54:53.017Z,15.35
2023-02-17T15:57:27.948Z,17.42
2023-02-17T16:00:02.630Z,14.95
2023-02-17T16:02:41.048Z,11.00
2023-02-17T16:05:18.034Z,11.27
2023-02-17T16:07:52.814Z,10.93
2023-02-17T16:10:28.824Z,13.75
2023-02-17T16:13:04.771Z,13.25
2023-02-17T16:15:45.530Z,14.80
2023-02-17T16:18:24.808Z,12.52
2023-02-17T16:21:01.138Z,10.70
2023-02-17T16:23:36.771Z,10.98
2023-02-17T16:26:17.813Z,13.13
2023-02-17T16:28:52.658Z,15.65
2023-02-17T16:31:27.063Z,12.27
2023-02-17T16:34:02.327Z,14.25
2023-02-17T16:36:39.974Z,16.42
2023-02-17T16:39:17.032Z,17.50
2023-02-17T16:41:51.879Z,16.33
2023-02-17T16:44:27.742Z,14.35
2023-02-17T16:47:04.367Z,15.13
2023-02-17T16:49:43.420Z,14.32
2023-02-17T16:52:26.742Z,18.85
2023-02-17T16:55:02.437Z,18.02
2023-02-17T16:57:37.270Z,16.15
2023-02-17T17:00:12.875Z,17.15
2023-02-17T17:02:47.276Z,16.45
2023-02-17T17:05:23.449Z,20.05
2023-02-17T17:08:00.188Z,13.23
2023-02-17T17:10:38.095Z,16.05
2023-02-17T17:13:12.501Z,16.65
2023-02-17T17:15:48.970Z,17.58
2023-02-17T17:18:25.807Z,15.13
2023-02-17T17:21:00.297Z,12.73
2023-02-17T17:23:36.533Z,17.98
2023-02-17T17:26:19.877Z,17.75
2023-02-17T17:28:54.505Z,20.63
2023-02-17T17:31:29.365Z,13.73
2023-02-17T17:34:03.738Z,16.75
2023-02-17T17:36:39.400Z,19.17
2023-02-17T17:39:18.607Z,15.75
2023-02-17T17:41:54.101Z,18.95
2023-02-17T17:44:29.760Z,18.50
2023-02-17T17:47:04.824Z,19.10
2023-02-17T17:49:39.422Z,19.48
2023-02-17T17:52:16.080Z,21.27
2023-02-17T17:54:52.345Z,18.63
2023-02-17T17:57:28.408Z,16.08
2023-02-17T18:00:03.159Z,18.27
2023-02-17T18:02:37.735Z,21.15
2023-02-17T18:05:12.414Z,18.05
2023-02-17T18:07:48.681Z,21.40
2023-02-17T18:10:26.039Z,14.82
2023-02-17T18:13:01.310Z,20.65
2023-02-17T18:15:35.775Z,14.77
2023-02-17T18:18:11.184Z,16.35
2023-02-17T18:20:45.899Z,14.10
2023-02-17T18:23:20.400Z,14.30
2023-02-17T18:25:56.797Z,19.70
2023-02-17T18:28:32.833Z,12.02
2023-02-17T18:31:11.581Z,14.73
2023-02-17T18:33:46.414Z,16.83
2023-02-17T18:36:21.287Z,14.18
2023-02-17T18:38:56.561Z,12.77
2023-02-17T18:41:33.703Z,13.65
2023-02-17T18:44:09.434Z,12.38
2023-02-17T18:46:43.700Z,16.42
2023-02-17T18:49:18.653Z,17.35
2023-02-17T18:51:53.319Z,17.15
2023-02-17T18:54:28.799Z,15.25
2023-02-17T18:57:06.910Z,15.68
2023-02-17T18:59:43.788Z,21.30
2023-02-17T19:02:19.508Z,12.75
2023-02-17T19:04:58.004Z,12.40
2023-02-17T19:07:33.210Z,16.80
2023-02-17T19:10:10.270Z,16.00
2023-02-17T19:12:47.745Z,16.52
2023-02-17T19:15:23.797Z,14.90
2023-02-17T19:18:01.515Z,13.88
2023-02-17T19:20:37.785Z,16.38
2023-02-17T19:23:13.582Z,12.93
2023-02-17T19:25:49.134Z,17.65
2023-02-17T19:28:26.230Z,20.33
2023-02-17T19:31:03.355Z,17.10
2023-02-17T19:33:39.115Z,16.95
2023-02-17T19:36:15.614Z,21.02
2023-02-17T19:38:51.367Z,13.65
2023-02-17T19:41:27.727Z,14.95
2023-02-17T19:44:05.316Z,18.55
2023-02-17T19:46:41.624Z,16.58
2023-02-17T19:49:16.860Z,15.02
2023-02-17T19:51:53.646Z,22.88
2023-02-17T19:54:29.459Z,21.35
2023-02-17T19:57:04.825Z,16.75
2023-02-17T19:59:41.883Z,14.40
2023-02-17T20:02:20.349Z,15.80
2023-02-17T20:04:56.563Z,16.85
2023-02-17T20:07:32.110Z,22.02
2023-02-17T20:10:08.231Z,18.30
2023-02-17T20:12:44.371Z,14.93
2023-02-17T20:15:21.796Z,14.35
2023-02-17T20:17:57.843Z,10.88
2023-02-17T20:20:33.244Z,13.15
2023-02-17T20:23:09.222Z,12.35
2023-02-17T20:25:46.377Z,8.05
2023-02-17T20:28:21.824Z,10.93
2023-02-17T20:30:59.072Z,11.50
2023-02-17T20:33:35.718Z,8.63
2023-02-17T20:36:13.415Z,7.78
2023-02-17T20:38:49.045Z,8.75
2023-02-17T20:41:25.372Z,6.82
2023-02-17T20:44:03.990Z,8.73
2023-02-17T20:46:41.487Z,10.05
2023-02-17T20:49:22.005Z,8.10
2023-02-17T20:51:57.310Z,11.15
2023-02-17T20:54:34.906Z,7.22
2023-02-17T20:57:18.906Z,8.20
2023-02-17T20:59:54.327Z,7.90
2023-02-17T21:02:31.449Z,9.18
2023-02-17T21:05:08.101Z,8.00
2023-02-17T21:07:43.897Z,9.38
2023-02-17T21:10:22.240Z,8.93
2023-02-17T21:12:57.493Z,9.18
2023-02-17T21:15:33.540Z,8.25
2023-02-17T21:18:11.173Z,9.32
2023-02-17T21:20:47.132Z,8.68
2023-02-17T21:23:24.257Z,8.73
2023-02-17T21:26:00.186Z,8.77
2023-02-17T21:28:35.637Z,8.88
2023-02-17T21:31:11.612Z,7.13
2023-02-17T21:33:49.141Z,9.57
2023-02-17T21:36:26.985Z,9.63
2023-02-17T21:39:05.482Z,8.00
2023-02-17T21:41:42.668Z,9.70
2023-02-17T21:44:34.188Z,8.73
2023-02-17T21:47:10.092Z,10.77
2023-02-17T21:49:47.943Z,10.38
2023-02-17T21:52:23.384Z,8.38
2023-02-17T21:54:59.520Z,8.77
2023-02-17T21:57:35.315Z,6.55
2023-02-17T22:00:11.626Z,8.60
2023-02-17T22:02:46.478Z,7.45
2023-02-17T22:05:23.636Z,9.85
2023-02-17T22:07:59.984Z,9.50
2023-02-17T22:10:35.883Z,11.45
2023-02-17T22:13:11.027Z,9.98
2023-02-17T22:15:46.672Z,8.40
2023-02-17T22:18:22.332Z,11.05
2023-02-17T22:20:59.985Z,9.48
2023-02-17T22:23:35.827Z,9.15
2023-02-17T22:26:14.394Z,10.88
2023-02-17T22:28:51.382Z,9.00
2023-02-17T22:31:28.323Z,7.82
2023-02-17T22:34:04.915Z,7.80
2023-02-17T22:36:43.044Z,9.18
2023-02-17T22:39:19.416Z,8.23
2023-02-17T22:41:55.122Z,8.77
2023-02-17T22:44:31.925Z,8.75
2023-02-17T22:47:06.289Z,7.97
2023-02-17T22:49:40.951Z,10.35
2023-02-17T22:52:20.821Z,8.27
2023-02-17T22:54:59.147Z,11.07
2023-02-17T22:57:35.339Z,15.05
2023-02-17T23:00:13.603Z,9.18
2023-02-17T23:02:49.047Z,9.68
2023-02-17T23:05:24.409Z,9.07
2023-02-17T23:08:07.002Z,14.82
2023-02-17T23:10:48.142Z,9.98
2023-02-17T23:13:22.779Z,8.88
2023-02-17T23:15:57.490Z,8.00
2023-02-17T23:18:33.774Z,8.50
2023-02-17T23:21:15.183Z,7.95
2023-02-17T23:23:52.767Z,9.13
2023-02-17T23:26:28.945Z,10.15
2023-02-17T23:29:04.151Z,9.18
2023-02-17T23:31:41.192Z,7.90
2023-02-17T23:34:18.747Z,9.73
2023-02-17T23:36:54.123Z,11.48
2023-02-17T23:39:31.388Z,9.70
2023-02-17T23:42:08.197Z,7.93
2023-02-17T23:44:43.612Z,13.13
2023-02-17T23:47:18.939Z,10.90
2023-02-17T23:49:53.976Z,12.80
2023-02-17T23:52:29.999Z,14.70
2023-02-17T23:55:09.659Z,12.32
2023-02-17T23:57:45.506Z,11.63
